Dniprodzerzhyns'k, Ukraine
Current Conditions -  °F | °C
As of 5:30 AM on Saturday 22 Nov 2014 (Local Time) from UKDD Reporting Station
Clear Clear  
Wind Chill: 10°   Ceiling: Unl
Heat Index: 21°   Visibility: 6mi
Dew Point: 16°   Wind: 11mph
Humidity: 80%   Direction: 70°ENE
Pressure: 30.27"   Gusts: NA
Location:  48.5°N, 34.61°E
Report Text: UKDD 220230Z 07005MPS CAVOK M06/M09 Q1025 08090070 NOSIG
Loading
Personal Weather Stations






























Interactive Weather Map New forecast layout! Learn more

10-Day Weather Forecast

Advertisements
Track Severe Weather on mobile